Angola, Kansas
Current Conditions -  °F | °C
As of 10:00 AM on Thursday 29 Jan 2015 (Local Time) from KCFV Reporting Station
Overcast Overcast  
Wind Chill: 34°   Ceiling: 3100
Heat Index: 43°   Visibility: 10mi
Dew Point: 30°   Wind: 20mph
Humidity: 60%   Direction: 340°NNW
Pressure: 30.38"   Gusts: 26mph
Location:  37.067°N, 95.5817°W
Report Text: KCFV 291600Z AUTO 34017G23KT 10SM OVC031 06/M01 A3038 RMK AO2 T00611011
Loading
Personal Weather Stations






























Interactive Weather Map New forecast layout! Learn more

10-Day Weather Forecast

Advertisements
Track Severe Weather on mobile